Time;durP1;ratioP1;P1;durP2;ratioP2;P2;SDS_P1;SDS_P2;PMS_P1;PMS_P2;Temp;Humidity;BMP_temperature;BMP_pressure;BME280_temperature;BME280_humidity;BME280_pressure;Samples;Min_cycle;Max_cycle;Signal;HPM_P1;HPM_P2
2021/12/02 00:01:09;;;;;;;3.53;2.05;;;10.00;99.90;;;10.26;55.73;96529.63;6040494;23;20023;-81
2021/12/02 00:03:36;;;;;;;5.07;2.65;;;10.00;99.90;;;10.29;55.24;96539.84;6040033;23;20018;-81
2021/12/02 00:06:03;;;;;;;5.18;2.60;;;10.00;99.90;;;10.31;54.91;96537.59;6040959;23;20431;-81
2021/12/02 00:08:29;;;;;;;2.35;2.15;;;10.00;99.90;;;10.26;55.15;96526.94;6042423;23;20081;-81
2021/12/02 00:10:55;;;;;;;4.97;2.63;;;10.00;99.90;;;10.27;54.94;96532.00;6016417;23;20022;-81
2021/12/02 00:13:26;;;;;;;3.35;2.40;;;10.10;99.90;;;10.24;55.23;96524.53;6018016;23;20023;-82
2021/12/02 00:21:06;;;;;;;4.20;2.35;;;10.00;99.90;;;10.33;54.93;96524.50;6041493;23;20026;-81
2021/12/02 00:23:55;;;;;;;2.00;1.60;;;10.00;99.90;;;10.29;54.79;96524.38;6073432;23;20650;-81
2021/12/02 00:26:21;;;;;;;4.22;1.70;;;10.00;99.90;;;10.27;55.23;96521.16;6073648;23;20615;-81
2021/12/02 00:28:59;;;;;;;3.05;2.13;;;10.00;99.90;;;10.25;55.14;96517.19;6042176;23;20137;-82
2021/12/02 00:31:31;;;;;;;3.17;2.28;;;10.00;99.90;;;10.26;55.34;96518.78;6048827;23;20053;-81
2021/12/02 00:34:02;;;;;;;4.78;2.17;;;10.00;99.90;;;10.28;54.65;96519.28;6051000;23;20053;-81
2021/12/02 00:36:30;;;;;;;1.92;1.83;;;10.00;99.90;;;10.32;54.32;96520.22;6065265;23;20018;-81
2021/12/02 00:38:56;;;;;;;2.20;1.60;;;10.10;99.90;;;10.28;54.78;96520.09;6041524;23;20023;-82
2021/12/02 00:41:27;;;;;;;3.03;1.67;;;10.10;99.90;;;10.34;54.77;96515.28;6039606;23;20031;-81
2021/12/02 00:43:54;;;;;;;1.33;1.23;;;10.10;99.90;;;10.33;54.79;96510.97;6074785;23;20033;-82
2021/12/02 00:46:22;;;;;;;1.63;1.52;;;10.10;99.90;;;10.34;54.72;96507.94;6040615;23;20410;-81
2021/12/02 00:48:49;;;;;;;1.38;1.30;;;10.10;99.90;;;10.33;54.80;96522.63;6042709;23;20070;-81
2021/12/02 00:51:15;;;;;;;2.60;2.10;;;10.10;99.90;;;10.36;54.47;96530.09;6041566;23;20027;-82
2021/12/02 00:53:45;;;;;;;2.70;1.80;;;10.20;99.90;;;10.38;54.38;96532.44;6041682;23;20015;-81
2021/12/02 00:56:14;;;;;;;1.80;1.45;;;10.20;99.90;;;10.47;54.26;96525.06;6016928;23;20038;-82
2021/12/02 00:58:41;;;;;;;2.25;1.10;;;10.20;99.90;;;10.52;54.55;96524.88;6042010;23;20521;-81
2021/12/02 01:01:07;;;;;;;2.60;1.73;;;10.20;99.90;;;10.50;54.50;96519.00;6064994;23;20031;-81
2021/12/02 01:03:34;;;;;;;2.00;1.30;;;10.30;99.90;;;10.54;53.73;96528.06;6038806;23;20051;-81
2021/12/02 01:06:01;;;;;;;1.88;1.50;;;10.30;99.90;;;10.56;54.26;96533.94;6063861;23;20684;-81
2021/12/02 01:08:27;;;;;;;1.30;1.20;;;10.30;99.90;;;10.57;53.67;96524.69;6038943;23;20034;-81
2021/12/02 01:10:53;;;;;;;2.58;1.60;;;10.30;99.90;;;10.57;53.50;96532.81;6038220;23;20114;-81
2021/12/02 01:13:20;;;;;;;2.20;1.40;;;10.30;99.90;;;10.58;53.78;96530.91;6039734;23;20022;-82
2021/12/02 01:15:46;;;;;;;2.65;1.83;;;10.30;99.90;;;10.60;54.55;96534.88;6037934;23;20283;-81
2021/12/02 01:18:12;;;;;;;2.90;1.75;;;10.30;99.90;;;10.61;53.42;96547.31;6036514;23;20350;-81
2021/12/02 01:20:38;;;;;;;1.80;1.52;;;10.30;99.90;;;10.61;53.51;96541.09;6038577;23;20019;-81
2021/12/02 01:23:04;;;;;;;2.17;1.75;;;10.30;99.90;;;10.58;53.62;96539.03;6039338;23;20513;-81
2021/12/02 01:25:31;;;;;;;2.20;1.73;;;10.30;99.90;;;10.59;53.75;96538.72;6037946;23;20046;-81
2021/12/02 01:27:57;;;;;;;1.95;1.58;;;10.30;99.90;;;10.56;53.43;96528.53;6014646;23;20026;-81
2021/12/02 01:30:27;;;;;;;2.80;1.58;;;10.30;99.90;;;10.56;53.99;96523.13;6039215;23;20158;-81
2021/12/02 01:33:04;;;;;;;3.67;1.95;;;10.30;99.90;;;10.55;53.93;96526.94;6048513;23;20030;-82
2021/12/02 01:35:31;;;;;;;4.50;2.08;;;10.30;99.90;;;10.55;53.91;96518.00;6044398;23;20407;-81
2021/12/02 01:37:57;;;;;;;2.42;1.80;;;10.20;99.90;;;10.49;54.18;96520.13;6037366;23;20019;-81
2021/12/02 01:40:24;;;;;;;3.55;1.90;;;10.30;99.90;;;10.51;53.52;96523.31;6039031;23;20465;-81
2021/12/02 01:42:57;;;;;;;3.95;1.85;;;10.20;99.90;;;10.44;53.84;96533.88;6040350;23;20019;-81
2021/12/02 01:45:26;;;;;;;4.95;1.75;;;10.20;99.90;;;10.41;53.99;96531.81;6024422;23;20070;-82
2021/12/02 01:47:53;;;;;;;3.78;1.63;;;10.20;99.90;;;10.40;54.05;96535.63;6064922;23;20018;-81
2021/12/02 01:50:22;;;;;;;2.67;1.98;;;10.10;99.90;;;10.41;53.89;96526.41;6040418;23;20023;-81
2021/12/02 01:52:54;;;;;;;2.63;1.60;;;10.20;99.90;;;10.40;54.12;96524.78;6040285;23;20102;-81
2021/12/02 01:55:20;;;;;;;2.47;1.75;;;10.10;99.90;;;10.29;54.43;96523.59;6025750;23;20019;-81
2021/12/02 01:58:00;;;;;;;2.25;1.70;;;10.10;99.90;;;10.15;54.23;96521.88;6062397;23;20046;-82
2021/12/02 02:00:44;;;;;;;2.88;1.60;;;10.00;99.90;;;10.02;54.59;96513.97;6052318;23;20097;-81
2021/12/02 02:03:11;;;;;;;2.53;1.27;;;9.90;99.90;;;9.88;55.08;96520.41;6055092;23;20022;-81
2021/12/02 02:05:38;;;;;;;3.30;1.83;;;9.70;99.90;;;9.76;55.34;96522.97;6066214;23;20531;-81
2021/12/02 02:08:17;;;;;;;3.45;1.77;;;9.50;99.90;;;9.65;55.83;96524.47;6042720;23;20506;-81
2021/12/02 02:10:43;;;;;;;2.63;1.58;;;9.50;99.90;;;9.52;55.94;96521.63;6053035;23;20431;-81
2021/12/02 02:13:10;;;;;;;3.20;1.73;;;9.40;99.90;;;9.39;56.27;96516.38;6018338;23;20233;-81
2021/12/02 02:15:37;;;;;;;1.95;1.58;;;9.30;99.90;;;9.34;56.79;96528.19;6042881;23;20030;-81
2021/12/02 02:18:25;;;;;;;3.00;2.05;;;9.20;99.90;;;9.34;56.83;96522.78;6062657;23;20050;-81
2021/12/02 02:21:07;;;;;;;1.70;1.33;;;9.10;99.90;;;9.45;56.95;96534.84;6045875;23;20026;-81
2021/12/02 02:23:37;;;;;;;1.30;1.20;;;9.20;99.90;;;9.56;56.80;96527.97;6054219;23;20019;-81
2021/12/02 02:26:04;;;;;;;1.90;1.77;;;9.30;99.90;;;9.60;56.06;96538.16;6044634;23;20023;-81
2021/12/02 02:28:30;;;;;;;2.50;1.40;;;9.30;99.90;;;9.63;56.50;96540.22;6041325;23;20408;-81
2021/12/02 02:30:56;;;;;;;2.80;2.00;;;9.40;99.90;;;9.66;55.83;96537.66;6041810;23;20400;-81
2021/12/02 02:33:23;;;;;;;6.13;2.15;;;9.40;99.90;;;9.69;56.45;96547.88;6043147;23;20038;-81
2021/12/02 02:35:49;;;;;;;4.15;2.03;;;9.50;99.90;;;9.76;55.91;96552.75;6041020;23;20419;-81
2021/12/02 02:38:15;;;;;;;4.60;2.20;;;9.50;99.90;;;9.80;56.16;96548.31;6049378;23;20033;-82
2021/12/02 02:40:44;;;;;;;4.75;2.97;;;9.50;99.90;;;9.82;56.01;96545.25;6041746;23;20097;-82
2021/12/02 02:43:11;;;;;;;4.25;2.70;;;9.60;99.90;;;9.85;56.46;96537.28;6041974;23;20022;-81
2021/12/02 02:45:37;;;;;;;6.03;3.20;;;9.60;99.90;;;9.90;56.13;96550.66;6040363;23;20050;-81
2021/12/02 02:48:04;;;;;;;4.40;2.97;;;9.60;99.90;;;9.92;56.03;96545.72;6040910;23;20113;-81
2021/12/02 02:50:31;;;;;;;4.70;3.08;;;9.60;99.90;;;9.93;55.22;96551.91;6041024;23;20356;-81
2021/12/02 02:53:20;;;;;;;10.15;3.38;;;9.70;99.90;;;9.97;55.35;96539.31;6041475;23;20050;-82
2021/12/02 02:55:57;;;;;;;3.83;2.63;;;9.70;99.90;;;9.98;55.46;96551.75;6055919;23;20034;-82
2021/12/02 02:58:33;;;;;;;5.45;2.58;;;9.70;99.90;;;10.02;55.76;96547.25;6051631;23;20125;-81
2021/12/02 03:03:59;;;;;;;4.03;2.65;;;9.80;99.90;;;9.92;56.25;96542.19;6044268;23;20019;-82
2021/12/02 03:09:00;;;;;;;2.90;2.30;;;9.60;99.90;;;9.82;56.08;96554.19;6040733;23;20303;-81
2021/12/02 03:11:27;;;;;;;2.88;1.80;;;9.60;99.90;;;9.76;55.90;96550.84;6029320;23;20019;-82
2021/12/02 03:13:54;;;;;;;2.70;2.10;;;9.50;99.90;;;9.74;56.06;96555.81;6040481;23;20407;-81
2021/12/02 03:19:05;;;;;;;2.30;1.88;;;9.40;99.90;;;9.61;55.87;96559.47;6063424;23;20121;-81
2021/12/02 03:21:30;;;;;;;4.72;2.13;;;9.40;99.90;;;9.56;56.23;96556.94;6039038;23;20039;-81
2021/12/02 03:23:58;;;;;;;3.65;1.88;;;9.30;99.90;;;9.52;56.29;96564.94;6064640;23;20176;-82
2021/12/02 03:26:25;;;;;;;10.90;2.47;;;9.30;99.90;;;9.44;56.58;96562.22;6039529;23;20070;-83
2021/12/02 03:28:52;;;;;;;4.28;2.25;;;9.20;99.90;;;9.35;56.84;96562.25;6035917;23;20379;-82
2021/12/02 03:31:19;;;;;;;7.97;2.47;;;9.10;99.90;;;9.25;57.13;96568.75;6038302;23;20014;-83
2021/12/02 03:33:46;;;;;;;2.75;2.05;;;9.00;99.90;;;9.23;57.57;96571.00;6016623;23;20261;-82
2021/12/02 03:36:13;;;;;;;4.18;2.25;;;9.00;99.90;;;9.21;57.29;96567.00;6015162;23;20421;-82
2021/12/02 03:38:39;;;;;;;6.82;3.15;;;9.00;99.90;;;9.21;57.72;96564.31;6039478;23;20029;-82
2021/12/02 03:41:06;;;;;;;6.78;3.65;;;9.00;99.90;;;9.23;57.67;96570.19;6038720;23;20090;-82
2021/12/02 03:43:36;;;;;;;9.90;4.35;;;9.00;99.90;;;9.22;57.73;96566.72;6040813;23;20494;-82
2021/12/02 03:46:03;;;;;;;5.78;2.90;;;9.00;99.90;;;9.25;57.64;96562.56;6039488;23;20390;-82
2021/12/02 03:48:31;;;;;;;5.30;3.00;;;9.00;99.90;;;9.30;57.44;96557.00;6037812;23;20074;-82
2021/12/02 03:50:57;;;;;;;5.22;2.97;;;9.10;99.90;;;9.32;57.65;96560.97;5992245;23;20018;-82
2021/12/02 03:53:23;;;;;;;3.70;2.47;;;9.00;99.90;;;9.28;57.45;96551.09;6041683;23;20276;-82
2021/12/02 03:55:50;;;;;;;4.13;2.35;;;9.10;99.90;;;9.23;57.27;96554.75;6017422;23;20133;-82
2021/12/02 03:58:17;;;;;;;3.58;2.88;;;9.00;99.90;;;9.21;56.95;96557.00;6017863;23;20451;-82
2021/12/02 04:00:43;;;;;;;2.95;2.10;;;9.00;99.90;;;9.17;57.13;96556.06;6040203;23;20046;-82
2021/12/02 04:03:09;;;;;;;3.70;2.25;;;8.90;99.90;;;9.11;57.02;96560.03;6041585;23;20066;-82
2021/12/02 04:05:35;;;;;;;5.32;2.08;;;8.90;99.90;;;9.09;57.62;96548.75;6041407;23;20386;-82
2021/12/02 04:08:01;;;;;;;3.63;2.58;;;8.90;99.90;;;9.05;57.51;96547.78;6014882;23;20030;-82
2021/12/02 04:10:28;;;;;;;2.55;1.77;;;8.90;99.90;;;9.01;57.37;96560.34;6036550;23;20019;-82
2021/12/02 04:15:33;;;;;;;2.30;1.60;;;8.80;99.90;;;8.94;58.19;96560.03;6038058;23;20058;-82
2021/12/02 04:17:59;;;;;;;3.13;2.17;;;8.90;99.90;;;8.96;57.68;96561.31;6044486;23;20023;-82
2021/12/02 04:20:26;;;;;;;3.33;2.20;;;8.80;99.90;;;8.98;57.48;96563.69;6036585;23;20438;-82
2021/12/02 04:22:53;;;;;;;3.65;2.22;;;8.80;99.90;;;8.98;57.98;96569.09;6016594;23;20022;-82
2021/12/02 04:25:19;;;;;;;2.20;1.60;;;8.80;99.90;;;8.91;57.70;96573.06;6040456;23;20110;-82
2021/12/02 04:27:46;;;;;;;3.47;1.60;;;8.80;99.90;;;8.89;57.82;96571.78;6043316;23;20015;-83
2021/12/02 04:30:17;;;;;;;2.50;2.05;;;8.80;99.90;;;8.94;57.85;96573.56;6043519;23;20019;-82
2021/12/02 04:32:43;;;;;;;2.47;1.63;;;8.80;99.90;;;8.90;57.57;96574.19;6042941;23;20571;-82
2021/12/02 04:35:10;;;;;;;2.88;2.03;;;8.80;99.90;;;8.96;57.83;96576.75;6041819;23;20014;-82
2021/12/02 04:37:36;;;;;;;3.00;1.80;;;8.80;99.90;;;8.96;58.08;96577.53;6038143;23;20023;-83
2021/12/02 04:40:05;;;;;;;3.08;1.92;;;8.80;99.90;;;8.99;57.50;96581.50;6042702;23;20409;-83
2021/12/02 04:42:32;;;;;;;1.70;1.60;;;8.80;99.90;;;9.02;57.91;96586.28;6042277;23;20119;-82
2021/12/02 04:44:58;;;;;;;1.98;1.80;;;8.80;99.90;;;9.05;57.50;96580.22;6044155;23;20023;-82
2021/12/02 04:47:24;;;;;;;3.97;2.33;;;8.90;99.90;;;9.07;57.58;96565.28;6044065;23;20046;-82
2021/12/02 04:49:50;;;;;;;3.22;2.15;;;8.90;99.90;;;9.10;57.08;96591.69;6044546;23;20141;-82
2021/12/02 04:52:16;;;;;;;3.15;1.67;;;8.90;99.90;;;9.20;56.83;96587.88;6043708;23;20027;-81
2021/12/02 04:54:42;;;;;;;6.30;2.47;;;9.00;99.90;;;9.26;56.10;96599.31;6044603;23;20019;-81
2021/12/02 04:57:08;;;;;;;4.20;2.08;;;9.10;99.90;;;9.32;55.90;96595.34;6064670;23;20030;-81
2021/12/02 04:59:34;;;;;;;3.05;1.77;;;9.10;99.90;;;9.34;56.53;96583.09;6040032;23;20097;-81
2021/12/02 05:02:00;;;;;;;4.82;2.47;;;9.10;99.90;;;9.38;55.99;96587.84;6039925;23;20023;-81
2021/12/02 05:04:27;;;;;;;3.03;2.22;;;9.10;99.90;;;9.39;55.82;96584.03;6040736;23;20079;-81
2021/12/02 05:06:53;;;;;;;3.30;2.20;;;9.10;99.90;;;9.40;55.91;96594.53;6015862;23;20034;-81
2021/12/02 05:09:19;;;;;;;3.47;2.15;;;9.20;99.90;;;9.43;56.42;96596.59;6040554;23;20130;-81
2021/12/02 05:11:45;;;;;;;4.57;2.17;;;9.30;99.90;;;9.45;55.70;96586.25;6066497;23;20018;-81
2021/12/02 05:14:10;;;;;;;3.22;2.25;;;9.30;99.90;;;9.48;55.78;96598.34;6063486;23;20019;-81
2021/12/02 05:16:37;;;;;;;3.20;2.00;;;9.30;99.90;;;9.51;55.63;96600.41;6040473;23;20382;-81
2021/12/02 05:19:03;;;;;;;3.08;2.67;;;9.30;99.90;;;9.51;55.10;96600.41;6040185;23;20025;-81
2021/12/02 05:21:29;;;;;;;4.72;2.35;;;9.30;99.90;;;9.47;55.17;96602.19;6018837;23;20019;-81
2021/12/02 05:23:55;;;;;;;2.22;1.98;;;9.30;99.90;;;9.43;55.14;96607.44;6042615;23;20289;-82
2021/12/02 05:26:25;;;;;;;4.10;2.42;;;9.30;99.90;;;9.38;55.17;96606.81;6041303;23;20030;-81
2021/12/02 05:28:51;;;;;;;5.72;2.30;;;9.30;99.90;;;9.31;55.13;96607.28;6041631;23;20022;-81
2021/12/02 05:31:18;;;;;;;3.17;2.63;;;9.20;99.90;;;9.19;55.94;96602.50;6016128;23;20019;-83
2021/12/02 05:33:44;;;;;;;4.43;2.58;;;9.10;99.90;;;9.09;55.57;96609.03;6039299;23;20018;-84
2021/12/02 05:36:10;;;;;;;5.10;2.00;;;9.00;99.90;;;9.07;56.14;96621.28;6033662;23;20023;-84
2021/12/02 05:38:36;;;;;;;5.15;2.50;;;8.90;99.90;;;9.09;55.93;96616.34;6035269;23;20023;-85
2021/12/02 05:41:03;;;;;;;3.95;1.90;;;8.90;99.90;;;9.11;56.39;96616.84;6012873;23;20027;-79
2021/12/02 05:43:29;;;;;;;3.60;2.10;;;8.90;99.90;;;9.25;55.63;96608.56;6013583;23;20054;-79
2021/12/02 05:45:56;;;;;;;2.50;2.30;;;9.00;99.90;;;9.34;55.26;96610.16;6035518;23;20101;-79
2021/12/02 05:48:25;;;;;;;3.45;2.20;;;9.10;99.90;;;9.43;55.16;96622.88;6035036;23;20019;-79
2021/12/02 05:50:51;;;;;;;4.57;2.22;;;9.10;99.90;;;9.36;55.67;96620.63;6036240;23;20054;-79
2021/12/02 05:53:17;;;;;;;3.28;2.35;;;9.20;99.90;;;9.27;55.54;96609.81;6010373;23;20463;-79
2021/12/02 05:55:43;;;;;;;4.55;2.53;;;9.20;99.90;;;9.19;55.40;96621.44;6060289;23;20018;-79
2021/12/02 05:58:13;;;;;;;5.72;2.60;;;9.10;99.90;;;9.10;55.73;96626.84;6035668;23;20027;-79
2021/12/02 06:00:40;;;;;;;4.85;2.45;;;9.00;99.90;;;8.99;56.19;96632.88;6070649;23;20102;-79
2021/12/02 06:03:06;;;;;;;7.90;3.13;;;8.90;99.90;;;8.87;56.54;96634.28;6037277;23;20023;-79
2021/12/02 06:05:32;;;;;;;5.25;2.65;;;8.80;99.90;;;8.76;56.43;96641.09;6035654;23;20102;-79
2021/12/02 06:07:59;;;;;;;5.65;2.60;;;8.70;99.90;;;8.64;56.35;96654.44;6036080;23;20105;-80
2021/12/02 06:10:26;;;;;;;6.60;2.83;;;8.60;99.90;;;8.52;57.17;96648.81;6015173;23;20015;-80
2021/12/02 06:12:51;;;;;;;4.03;2.47;;;8.50;99.90;;;8.40;57.78;96652.91;6034462;23;20339;-76
2021/12/02 06:15:18;;;;;;;7.85;3.55;;;8.30;99.90;;;8.30;57.53;96647.75;6058314;23;20122;-76
2021/12/02 06:17:44;;;;;;;8.55;2.72;;;8.30;99.90;;;8.29;57.92;96659.66;6057644;23;20074;-76
2021/12/02 06:20:14;;;;;;;4.57;3.17;;;8.20;99.90;;;8.23;57.95;96660.91;6033502;23;20093;-76
2021/12/02 06:22:40;;;;;;;5.63;3.05;;;8.20;99.90;;;8.18;58.62;96661.84;6042794;23;20118;-76
2021/12/02 06:27:40;;;;;;;5.43;3.60;;;8.10;99.90;;;8.07;58.51;96660.53;6045439;23;20380;-76
2021/12/02 06:30:07;;;;;;;5.57;3.20;;;8.00;99.90;;;7.99;59.14;96662.06;6033330;23;20082;-76
2021/12/02 06:32:33;;;;;;;6.25;3.20;;;7.90;99.90;;;7.96;59.13;96657.28;6033556;23;20249;-76
2021/12/02 06:34:59;;;;;;;4.72;3.15;;;7.90;99.90;;;7.93;59.14;96671.38;6057893;23;20683;-76
2021/12/02 06:37:25;;;;;;;6.35;3.25;;;7.80;99.90;;;7.91;59.82;96679.00;6059547;23;20031;-76
2021/12/02 06:39:51;;;;;;;9.65;3.58;;;7.80;99.90;;;7.92;59.84;96679.81;6036128;23;20101;-76
2021/12/02 06:42:17;;;;;;;10.05;3.33;;;7.80;99.90;;;7.92;59.57;96677.09;6060679;23;20030;-76
2021/12/02 06:44:43;;;;;;;8.57;3.83;;;7.80;99.90;;;8.00;59.96;96684.47;6012197;23;20506;-76
2021/12/02 06:47:10;;;;;;;5.93;3.35;;;7.90;99.90;;;8.05;60.03;96690.50;6036798;23;20027;-77
2021/12/02 06:49:38;;;;;;;7.78;4.38;;;7.90;99.90;;;8.12;59.69;96697.41;6036944;23;20320;-81
2021/12/02 06:52:09;;;;;;;6.75;3.80;;;8.00;99.90;;;8.17;59.64;96686.47;6039403;23;20102;-81
2021/12/02 06:54:35;;;;;;;7.72;3.63;;;8.10;99.90;;;8.30;59.30;96684.78;6038270;23;20026;-76
2021/12/02 06:57:01;;;;;;;8.70;4.15;;;8.10;99.90;;;8.34;59.23;96683.84;6061720;23;20022;-78
2021/12/02 06:59:27;;;;;;;8.80;3.78;;;8.20;99.90;;;8.42;59.22;96688.53;6038995;23;20094;-81
2021/12/02 07:01:53;;;;;;;5.68;3.55;;;8.30;99.90;;;8.49;59.11;96688.06;6063569;23;20029;-81
2021/12/02 07:04:18;;;;;;;10.35;4.32;;;8.30;99.90;;;8.59;58.80;96695.91;6039626;23;20090;-81
2021/12/02 07:06:45;;;;;;;6.43;2.95;;;8.40;99.90;;;8.76;58.54;96697.88;6038580;23;20023;-81
2021/12/02 07:09:11;;;;;;;7.65;3.75;;;8.60;99.90;;;8.93;58.18;96705.25;6039557;23;20026;-81
2021/12/02 07:11:38;;;;;;;7.82;4.13;;;8.70;99.90;;;9.09;57.33;96694.78;6038076;23;20023;-81
2021/12/02 07:14:07;;;;;;;6.85;4.22;;;8.90;99.90;;;9.24;57.07;96709.78;6063184;23;20458;-81
2021/12/02 07:16:33;;;;;;;8.70;4.00;;;9.10;99.90;;;9.37;56.95;96710.75;6039914;23;20037;-81
2021/12/02 07:19:02;;;;;;;8.85;4.47;;;9.20;99.90;;;9.45;57.23;96702.63;6062217;23;20019;-81
2021/12/02 07:21:30;;;;;;;11.18;3.88;;;9.30;99.90;;;9.49;57.50;96717.13;6012449;23;20019;-81
2021/12/02 07:23:56;;;;;;;12.38;5.03;;;9.30;99.90;;;9.60;57.19;96720.31;6037520;23;20019;-81
2021/12/02 07:26:23;;;;;;;11.57;4.65;;;9.40;99.90;;;9.69;56.90;96717.59;6061269;23;20042;-82
2021/12/02 07:28:49;;;;;;;10.35;3.92;;;9.50;99.90;;;9.85;56.42;96713.31;6038006;23;20019;-82
2021/12/02 07:31:15;;;;;;;9.52;4.63;;;9.70;99.90;;;9.96;56.28;96717.25;6015122;23;20091;-82
2021/12/02 07:33:48;;;;;;;10.25;4.97;;;9.80;99.90;;;10.07;55.42;96717.72;6038489;23;20086;-82
2021/12/02 07:36:15;;;;;;;10.90;4.68;;;9.90;99.90;;;10.30;54.53;96720.25;6022404;23;20022;-82
2021/12/02 07:38:41;;;;;;;12.35;5.10;;;10.10;99.90;;;10.54;54.48;96719.72;6039354;23;20019;-82
2021/12/02 07:41:07;;;;;;;20.40;5.75;;;10.30;99.90;;;10.75;53.59;96720.59;6040514;23;20026;-82
2021/12/02 07:43:36;;;;;;;10.15;4.57;;;10.60;99.90;;;10.82;53.00;96730.97;6038942;23;20153;-82
2021/12/02 07:46:03;;;;;;;13.88;5.80;;;10.70;99.90;;;10.86;52.65;96731.88;6037921;23;20399;-82
2021/12/02 07:48:29;;;;;;;17.20;5.80;;;10.80;99.90;;;10.90;52.79;96726.63;6015752;23;20023;-82
2021/12/02 07:50:59;;;;;;;14.63;6.55;;;10.80;99.90;;;10.97;52.69;96732.34;6039257;23;20019;-82
2021/12/02 07:53:25;;;;;;;16.85;6.05;;;10.80;99.90;;;10.98;52.22;96739.34;6014427;23;20023;-83
2021/12/02 07:55:51;;;;;;;20.92;6.65;;;10.90;99.90;;;11.04;52.33;96735.31;6014803;23;20503;-82
2021/12/02 07:58:18;;;;;;;19.30;7.50;;;10.90;99.90;;;11.08;52.17;96734.34;6038979;23;20114;-82
2021/12/02 08:00:43;;;;;;;14.60;6.68;;;11.00;99.90;;;11.12;52.05;96744.53;6015923;23;20019;-82
2021/12/02 08:03:10;;;;;;;13.35;5.75;;;11.00;99.90;;;11.20;52.46;96747.22;6039634;23;20019;-82
2021/12/02 08:05:37;;;;;;;12.18;5.78;;;11.10;99.90;;;11.21;51.72;96754.22;6062137;23;20114;-82
2021/12/02 08:08:04;;;;;;;12.98;5.97;;;11.20;99.90;;;11.22;51.57;96744.16;6039051;23;20538;-82
2021/12/02 08:10:29;;;;;;;15.73;5.68;;;11.20;99.90;;;11.16;51.85;96753.59;6015652;23;20090;-82
2021/12/02 08:12:57;;;;;;;13.18;5.40;;;11.20;99.90;;;11.26;51.84;96748.59;6039338;23;20023;-82
2021/12/02 08:15:25;;;;;;;12.77;5.68;;;11.20;99.90;;;11.28;51.74;96754.50;6040174;23;20027;-82
2021/12/02 08:17:52;;;;;;;16.75;5.53;;;11.30;99.90;;;11.27;51.75;96761.06;6039442;23;20030;-82
2021/12/02 08:20:25;;;;;;;12.43;5.72;;;11.30;99.90;;;11.16;51.96;96756.31;6041109;23;20066;-82
2021/12/02 08:22:51;;;;;;;7.97;5.22;;;11.20;99.90;;;10.81;53.29;96754.56;6042159;23;20045;-82
2021/12/02 08:25:17;;;;;;;7.75;4.38;;;11.00;99.90;;;10.78;54.23;96747.06;6041117;23;20430;-82
2021/12/02 08:27:43;;;;;;;7.78;4.03;;;10.90;99.90;;;10.78;54.69;96766.03;6040619;23;20026;-82
2021/12/02 08:30:12;;;;;;;9.15;4.00;;;10.90;99.90;;;10.82;54.01;96771.63;6040630;23;20047;-82
2021/12/02 08:32:41;;;;;;;7.57;4.55;;;10.80;99.90;;;10.79;54.53;96766.88;6064488;23;20033;-82
2021/12/02 08:35:11;;;;;;;11.70;4.28;;;10.80;99.90;;;10.78;53.80;96762.53;6040656;23;20050;-83
2021/12/02 08:37:42;;;;;;;7.45;3.90;;;10.80;99.90;;;10.83;54.46;96765.09;6040560;23;20018;-82
2021/12/02 08:40:10;;;;;;;8.40;3.25;;;10.80;99.90;;;10.92;53.69;96765.06;6050757;23;20407;-82
2021/12/02 08:42:36;;;;;;;6.97;3.22;;;10.90;99.90;;;10.93;53.76;96767.44;6040127;23;20074;-82
2021/12/02 08:45:02;;;;;;;11.68;3.10;;;10.90;99.90;;;11.01;53.86;96766.59;6038840;23;20019;-82
2021/12/02 08:47:28;;;;;;;8.13;3.08;;;11.00;99.90;;;11.05;53.17;96783.03;6041583;23;20069;-82
2021/12/02 08:49:55;;;;;;;6.00;2.88;;;11.10;99.90;;;11.14;52.97;96777.56;6041093;23;20019;-82
2021/12/02 08:52:26;;;;;;;6.07;3.00;;;11.10;99.90;;;11.32;53.18;96781.78;6064880;23;20014;-82
2021/12/02 08:54:53;;;;;;;6.82;3.28;;;11.20;99.90;;;11.41;52.71;96789.88;6041298;23;20552;-82
2021/12/02 08:57:21;;;;;;;8.35;3.42;;;11.40;99.90;;;11.44;52.39;96790.00;6018269;23;20019;-81
2021/12/02 08:59:48;;;;;;;13.32;3.38;;;11.50;99.90;;;11.48;51.89;96788.25;6042809;23;20027;-82
2021/12/02 09:02:14;;;;;;;6.57;2.35;;;11.50;99.90;;;11.48;51.52;96790.16;6020143;23;20503;-81
2021/12/02 09:04:40;;;;;;;5.65;2.92;;;11.50;99.90;;;11.52;51.86;96791.91;6042340;23;20015;-82
2021/12/02 09:07:06;;;;;;;4.72;2.53;;;11.60;99.90;;;11.56;51.14;96802.09;6042026;23;20050;-81
2021/12/02 09:09:32;;;;;;;6.53;2.80;;;11.60;99.90;;;11.56;51.04;96791.25;6042894;23;20101;-81
2021/12/02 09:11:58;;;;;;;6.53;2.97;;;11.70;99.90;;;11.66;51.07;96807.16;6040302;23;20046;-82
2021/12/02 09:14:24;;;;;;;6.85;3.15;;;11.70;99.90;;;11.73;51.02;96813.66;6017684;23;20025;-82
2021/12/02 09:16:51;;;;;;;7.88;2.75;;;11.70;99.90;;;11.79;51.21;96813.47;6018227;23;20097;-82
2021/12/02 09:19:20;;;;;;;5.07;2.80;;;11.80;99.90;;;11.88;50.93;96816.91;6042180;23;20070;-82
2021/12/02 09:21:46;;;;;;;6.25;3.97;;;11.90;99.90;;;11.91;50.94;96806.22;6018138;23;20030;-82
2021/12/02 09:24:18;;;;;;;6.07;3.85;;;12.00;99.90;;;11.94;50.25;96805.53;6042465;23;20023;-82
2021/12/02 09:26:45;;;;;;;4.00;2.55;;;12.10;99.90;;;12.03;50.12;96808.19;6051954;23;20034;-83
2021/12/02 09:29:11;;;;;;;4.35;3.00;;;12.10;99.90;;;12.06;50.01;96806.72;6064656;23;20046;-84
2021/12/02 09:31:37;;;;;;;6.55;2.95;;;12.20;99.90;;;12.16;50.21;96806.31;6038318;23;20162;-82
2021/12/02 09:34:03;;;;;;;5.40;2.78;;;12.20;99.90;;;12.23;49.10;96800.34;6017231;23;20518;-82
2021/12/02 09:36:29;;;;;;;3.63;2.05;;;12.30;99.90;;;12.19;48.94;96789.38;6017087;23;20039;-82
2021/12/02 09:38:55;;;;;;;6.82;2.58;;;12.30;99.90;;;12.19;48.81;96789.38;6016917;23;20023;-82
2021/12/02 09:41:21;;;;;;;6.60;2.78;;;12.30;99.90;;;12.29;48.71;96794.41;6017287;23;20102;-82
2021/12/02 09:43:47;;;;;;;6.40;2.95;;;12.30;99.90;;;12.31;48.92;96794.88;6017742;23;20379;-83
2021/12/02 09:46:13;;;;;;;5.50;2.97;;;12.40;99.90;;;12.36;49.05;96778.34;6038062;23;20018;-83
2021/12/02 09:48:39;;;;;;;7.50;2.75;;;12.40;99.90;;;12.44;48.82;96797.59;6037487;23;20493;-83
2021/12/02 09:53:37;;;;;;;5.07;2.75;;;12.60;99.90;;;12.52;48.17;96794.81;6037159;23;20470;-83
2021/12/02 09:58:33;;;;;;;5.68;2.63;;;12.60;99.90;;;12.48;47.87;96774.06;6037164;23;20050;-83
2021/12/02 10:01:07;;;;;;;5.53;3.05;;;12.60;99.90;;;12.50;48.45;96790.84;6033140;23;20585;-82
2021/12/02 10:03:35;;;;;;;5.15;3.60;;;12.50;99.90;;;12.56;48.37;96773.19;6072085;23;20022;-82
2021/12/02 10:06:14;;;;;;;5.85;3.15;;;12.50;99.90;;;12.59;47.67;96780.66;6037421;23;20023;-83
2021/12/02 10:08:51;;;;;;;6.43;3.63;;;12.50;99.90;;;12.49;47.62;96783.81;6069706;23;20025;-83
2021/12/02 10:11:54;;;;;;;4.13;1.98;;;12.60;99.70;;;12.42;47.10;96794.44;6037413;23;20110;-83
2021/12/02 10:14:30;;;;;;;3.28;2.10;;;12.60;99.10;;;12.29;46.17;96794.41;6047973;23;20026;-80
2021/12/02 10:17:26;;;;;;;2.30;1.75;;;12.50;98.30;;;12.12;46.46;96810.84;6061423;23;20097;-80
2021/12/02 10:25:57;;;;;;;2.17;1.70;;;12.00;97.30;;;11.60;47.21;96819.31;6068965;23;20101;-80
2021/12/02 10:28:25;;;;;;;3.42;1.33;;;11.80;97.90;;;11.51;46.89;96808.50;6061503;23;20447;-80
2021/12/02 10:30:56;;;;;;;2.67;1.63;;;11.70;97.90;;;11.58;47.12;96816.16;6037364;23;20042;-81
2021/12/02 10:33:47;;;;;;;3.47;1.48;;;11.70;98.10;;;11.38;46.73;96780.47;6037820;23;20288;-80
2021/12/02 10:36:30;;;;;;;1.70;1.05;;;11.50;97.60;;;11.45;47.47;96823.41;6060192;23;20371;-81
2021/12/02 10:39:00;;;;;;;1.73;1.48;;;11.40;98.30;;;11.54;46.88;96816.00;6045324;23;20018;-79
2021/12/02 10:41:29;;;;;;;3.70;2.10;;;11.50;98.10;;;11.60;47.05;96806.56;6046630;23;20503;-82
2021/12/02 10:44:29;;;;;;;3.38;2.00;;;11.60;97.90;;;11.58;46.86;96806.06;6063190;23;20019;-82
2021/12/02 10:47:03;;;;;;;2.40;1.60;;;11.60;97.90;;;11.65;46.85;96825.38;6049330;23;20355;-82
2021/12/02 10:49:42;;;;;;;2.67;1.85;;;11.70;97.80;;;11.64;46.62;96815.63;6071166;23;20029;-82
2021/12/02 10:52:26;;;;;;;3.05;2.15;;;11.70;97.60;;;11.67;47.06;96819.59;6039709;23;20500;-82
2021/12/02 10:55:05;;;;;;;4.40;2.85;;;11.70;97.60;;;11.69;46.68;96822.78;6050125;23;20019;-82
2021/12/02 10:57:32;;;;;;;2.42;1.50;;;11.80;97.70;;;11.71;46.12;96804.25;6049115;23;20131;-82
2021/12/02 11:00:00;;;;;;;4.38;2.08;;;11.80;97.30;;;11.69;46.64;96809.19;6037302;23;20019;-82